Time;durP1;ratioP1;P1;durP2;ratioP2;P2;SDS_P1;SDS_P2;PMS_P1;PMS_P2;Temp;Humidity;BMP_temperature;BMP_pressure;BME280_temperature;BME280_humidity;BME280_pressure;Samples;Min_cycle;Max_cycle;Signal;HPM_P1;HPM_P2
2023/12/14 00:00:27;;;;;;;14.77;7.00;;;4.40;99.90;;;4.95;100.00;99848.59;5068598;28;20033;-81
2023/12/14 00:02:53;;;;;;;11.90;6.72;;;4.40;99.90;;;4.66;100.00;99851.31;5070485;28;20051;-81
2023/12/14 00:05:18;;;;;;;11.80;6.80;;;4.30;99.90;;;4.95;100.00;99829.66;5069737;28;20037;-82
2023/12/14 00:07:44;;;;;;;12.45;7.30;;;4.30;99.90;;;5.11;100.00;99844.72;5035262;28;20102;-81
2023/12/14 00:10:12;;;;;;;12.55;7.78;;;4.30;99.90;;;4.90;100.00;99859.97;5070484;28;20109;-81
2023/12/14 00:12:38;;;;;;;15.88;8.25;;;4.30;99.90;;;5.23;100.00;99861.19;5068507;28;20033;-82
2023/12/14 00:15:04;;;;;;;14.73;8.02;;;4.30;99.90;;;5.27;100.00;99871.41;5068294;28;20472;-81
2023/12/14 00:17:30;;;;;;;14.77;7.95;;;4.30;99.90;;;5.36;100.00;99869.34;5069775;28;20044;-81
2023/12/14 00:19:56;;;;;;;15.43;8.15;;;4.30;99.90;;;5.26;100.00;99861.63;5050241;28;20098;-81
2023/12/14 00:22:22;;;;;;;15.00;7.78;;;4.30;99.90;;;5.25;100.00;99872.66;5050846;28;20094;-82
2023/12/14 00:24:47;;;;;;;14.98;7.82;;;4.30;99.90;;;5.27;100.00;99884.09;5050859;28;20464;-81
2023/12/14 00:27:13;;;;;;;13.18;7.47;;;4.30;99.90;;;5.37;100.00;99894.56;5050551;28;20036;-81
2023/12/14 00:29:39;;;;;;;15.48;8.23;;;4.30;99.90;;;5.27;100.00;99895.75;5068764;28;20142;-82
2023/12/14 00:32:05;;;;;;;14.35;8.38;;;4.30;99.90;;;4.73;100.00;99884.59;5038334;28;20361;-82
2023/12/14 00:34:31;;;;;;;14.82;8.15;;;4.30;99.90;;;4.46;100.00;99883.59;5068605;28;20087;-82
2023/12/14 00:36:56;;;;;;;14.43;8.18;;;4.20;99.90;;;4.61;100.00;99887.00;5053357;28;20040;-82
2023/12/14 00:39:22;;;;;;;14.10;8.27;;;4.10;99.90;;;4.51;100.00;99886.53;5070389;28;20044;-82
2023/12/14 00:41:48;;;;;;;12.20;6.95;;;4.10;99.90;;;4.46;100.00;99883.59;5053214;28;20031;-82
2023/12/14 00:44:13;;;;;;;16.35;9.45;;;4.00;99.90;;;4.58;100.00;99897.41;5038921;28;20522;-81
2023/12/14 00:46:41;;;;;;;17.40;9.38;;;4.00;99.90;;;4.54;100.00;99867.22;5050325;28;20082;-82
2023/12/14 00:49:07;;;;;;;16.42;8.98;;;4.00;99.90;;;4.65;100.00;99911.78;5075584;28;20024;-81
2023/12/14 00:51:33;;;;;;;18.10;9.32;;;3.90;99.90;;;4.44;100.00;99864.84;5076214;28;20045;-81
2023/12/14 00:53:58;;;;;;;16.77;9.23;;;3.90;99.90;;;4.73;100.00;99875.69;5058415;28;20465;-81
2023/12/14 00:56:24;;;;;;;17.48;8.85;;;4.00;99.90;;;4.80;100.00;99898.16;5068044;28;20041;-81
2023/12/14 00:58:50;;;;;;;14.95;8.65;;;3.90;99.90;;;5.06;100.00;99922.88;5051924;28;20098;-82
2023/12/14 01:01:15;;;;;;;15.60;9.05;;;3.90;99.90;;;4.84;100.00;99896.75;5050661;28;20036;-82
2023/12/14 01:03:41;;;;;;;18.17;8.70;;;3.90;99.90;;;5.11;100.00;99950.97;5050640;28;20041;-83
2023/12/14 01:06:07;;;;;;;15.10;7.93;;;3.90;99.90;;;5.00;100.00;99949.66;5038191;28;20051;-82
2023/12/14 01:08:32;;;;;;;13.85;8.13;;;3.90;99.90;;;5.12;100.00;99968.06;5067872;28;20037;-82
2023/12/14 01:10:58;;;;;;;16.00;8.70;;;3.90;99.90;;;5.01;100.00;99966.72;5050245;28;20044;-81
2023/12/14 01:13:24;;;;;;;14.75;8.32;;;3.90;99.90;;;5.02;100.00;99963.81;5072523;28;20060;-81
2023/12/14 01:15:50;;;;;;;15.07;8.70;;;3.90;99.90;;;5.12;100.00;99970.75;5054554;28;20365;-82
2023/12/14 01:18:17;;;;;;;16.95;9.05;;;4.00;99.90;;;4.81;100.00;99977.41;5072179;28;20107;-82
2023/12/14 01:20:42;;;;;;;17.23;8.93;;;3.90;99.90;;;4.80;100.00;99984.66;5071804;28;20519;-81
2023/12/14 01:23:09;;;;;;;15.40;8.60;;;3.90;99.90;;;4.92;100.00;99994.97;5073574;28;20039;-81
2023/12/14 01:25:36;;;;;;;14.65;8.80;;;3.90;99.90;;;4.92;100.00;99984.97;5071086;28;20427;-81
2023/12/14 01:28:02;;;;;;;15.80;9.00;;;3.90;99.90;;;4.61;100.00;100005.91;5065079;28;20182;-81
2023/12/14 01:30:27;;;;;;;14.63;8.77;;;3.90;99.90;;;4.57;100.00;100009.19;5071376;28;20486;-82
2023/12/14 01:32:53;;;;;;;15.38;8.35;;;3.90;99.90;;;4.31;100.00;100006.00;5054772;28;20036;-81
2023/12/14 01:35:19;;;;;;;14.50;8.50;;;3.90;99.90;;;4.25;100.00;100000.56;5039497;28;20037;-80
2023/12/14 01:37:44;;;;;;;12.77;8.32;;;3.80;99.90;;;4.26;100.00;100004.94;5068647;28;20138;-80
2023/12/14 01:40:11;;;;;;;13.52;7.47;;;3.80;99.90;;;4.20;100.00;99993.03;5034905;28;20484;-81
2023/12/14 01:42:37;;;;;;;13.38;7.70;;;3.80;99.90;;;4.22;100.00;99999.06;5071070;28;20036;-81
2023/12/14 01:45:04;;;;;;;13.55;8.00;;;3.80;99.90;;;4.59;100.00;100004.44;5066311;28;20039;-81
2023/12/14 01:47:29;;;;;;;13.85;8.10;;;3.80;99.90;;;4.51;100.00;100004.53;5034080;28;20333;-81
2023/12/14 01:49:55;;;;;;;12.18;7.35;;;3.80;99.90;;;4.50;100.00;100024.47;5070049;28;20037;-81
2023/12/14 01:52:21;;;;;;;13.63;8.35;;;3.80;99.90;;;4.23;100.00;100018.78;5054690;28;20037;-81
2023/12/14 01:54:46;;;;;;;11.95;7.68;;;3.80;99.90;;;4.13;100.00;99997.53;5073077;28;20488;-81
2023/12/14 01:57:12;;;;;;;12.88;7.80;;;3.70;99.90;;;4.14;100.00;100015.41;5072759;28;20039;-81
2023/12/14 01:59:38;;;;;;;13.70;6.93;;;3.70;99.90;;;3.96;100.00;100018.47;5052981;28;20483;-82
2023/12/14 02:02:06;;;;;;;14.10;7.75;;;3.60;99.90;;;4.08;100.00;100006.19;5070375;28;20052;-81
2023/12/14 02:04:32;;;;;;;13.90;7.88;;;3.60;99.90;;;4.04;100.00;100018.38;5054492;28;20056;-81
2023/12/14 02:06:58;;;;;;;13.25;7.78;;;3.60;99.90;;;3.87;100.00;100018.59;5053939;28;20051;-82
2023/12/14 02:09:24;;;;;;;15.00;7.63;;;3.50;99.90;;;3.89;100.00;100013.84;5053482;28;20039;-81
2023/12/14 02:11:50;;;;;;;14.70;7.90;;;3.50;99.90;;;3.92;100.00;100020.75;5050800;28;20485;-81
2023/12/14 02:14:16;;;;;;;11.75;6.78;;;3.50;99.90;;;3.97;100.00;100025.56;5070638;28;20081;-81
2023/12/14 02:16:41;;;;;;;13.23;7.47;;;3.50;99.90;;;4.29;100.00;100034.25;5069668;28;20052;-82
2023/12/14 02:19:07;;;;;;;13.68;7.50;;;3.50;99.90;;;4.13;100.00;100043.41;5042094;28;20473;-82
2023/12/14 02:21:33;;;;;;;13.82;8.20;;;3.50;99.90;;;4.34;100.00;100041.75;5049941;28;20072;-82
2023/12/14 02:23:59;;;;;;;12.55;7.40;;;3.60;99.90;;;4.18;100.00;100060.72;5035969;28;20033;-82
2023/12/14 02:26:24;;;;;;;13.57;7.63;;;3.60;99.90;;;4.18;100.00;100043.69;5080453;28;20134;-82
2023/12/14 02:28:50;;;;;;;14.65;8.50;;;3.60;99.90;;;4.19;100.00;100050.75;5069029;28;20452;-82
2023/12/14 02:31:18;;;;;;;15.50;8.63;;;3.60;99.90;;;4.23;100.00;100056.59;5047087;28;20033;-82
2023/12/14 02:33:43;;;;;;;13.98;8.23;;;3.60;99.90;;;4.40;100.00;100074.25;5071011;28;20703;-82
2023/12/14 02:36:09;;;;;;;18.10;9.50;;;3.50;99.90;;;4.42;100.00;100066.81;5045867;28;20032;-82
2023/12/14 02:38:35;;;;;;;16.02;8.90;;;3.50;99.90;;;4.48;100.00;100070.63;5069931;28;20040;-82
2023/12/14 02:41:01;;;;;;;17.13;9.23;;;3.60;99.90;;;4.41;100.00;100054.31;5070006;28;20089;-82
2023/12/14 02:43:26;;;;;;;17.00;9.02;;;3.60;99.90;;;4.39;100.00;100096.06;5046049;28;20036;-82
2023/12/14 02:45:52;;;;;;;16.33;9.65;;;3.60;99.90;;;4.54;100.00;100086.06;5070138;28;20039;-82
2023/12/14 02:48:18;;;;;;;19.98;10.43;;;3.60;99.90;;;4.32;100.00;100091.41;5070386;28;20368;-82
2023/12/14 02:50:43;;;;;;;15.15;8.65;;;3.50;99.90;;;4.10;100.00;100090.53;5070381;28;20033;-82
2023/12/14 02:53:09;;;;;;;16.60;9.88;;;3.60;99.90;;;4.34;100.00;100104.72;5070102;28;20036;-82
2023/12/14 02:55:35;;;;;;;18.55;10.23;;;3.50;99.90;;;4.52;100.00;100108.91;5044380;28;20036;-81
2023/12/14 02:58:00;;;;;;;17.13;9.35;;;3.60;99.90;;;4.50;100.00;100113.63;5070789;28;20029;-81
2023/12/14 03:00:26;;;;;;;15.55;9.63;;;3.60;99.90;;;4.81;100.00;100120.66;5072426;28;20652;-81
2023/12/14 03:02:52;;;;;;;22.20;10.32;;;3.60;99.90;;;4.41;100.00;100111.03;5074028;28;20041;-82
2023/12/14 03:05:18;;;;;;;19.02;10.52;;;3.60;99.90;;;4.45;100.00;100108.81;5074442;28;20391;-81
2023/12/14 03:07:43;;;;;;;18.75;10.75;;;3.60;99.90;;;4.59;100.00;100116.03;5049165;28;20060;-82
2023/12/14 03:10:09;;;;;;;19.30;10.88;;;3.60;99.90;;;4.85;100.00;100133.56;5053686;28;20041;-82
2023/12/14 03:12:35;;;;;;;22.52;11.27;;;3.60;99.90;;;4.71;100.00;100127.19;5052933;28;20044;-82
2023/12/14 03:15:01;;;;;;;25.38;12.73;;;3.60;99.90;;;4.96;100.00;100134.09;5045124;28;20041;-82
2023/12/14 03:17:26;;;;;;;21.83;11.50;;;3.60;99.90;;;4.76;100.00;100132.03;5069632;28;20047;-82
2023/12/14 03:19:52;;;;;;;20.67;11.60;;;3.60;99.90;;;4.67;100.00;100136.69;5065870;28;20033;-82
2023/12/14 03:22:18;;;;;;;22.02;11.02;;;3.60;99.90;;;4.44;100.00;100124.16;5070518;28;20365;-82
2023/12/14 03:24:43;;;;;;;19.40;10.55;;;3.60;99.90;;;4.45;100.00;100147.47;5033276;28;20035;-82
2023/12/14 03:27:09;;;;;;;24.10;11.02;;;3.60;99.90;;;4.37;100.00;100147.56;5034887;28;20633;-82
2023/12/14 03:29:35;;;;;;;23.75;10.60;;;3.60;99.90;;;4.29;100.00;100131.47;5069621;28;20096;-81
2023/12/14 03:32:01;;;;;;;20.02;9.90;;;3.60;99.90;;;4.16;100.00;100137.53;5051596;28;20064;-80
2023/12/14 03:34:27;;;;;;;18.65;9.77;;;3.60;99.90;;;4.14;100.00;100132.31;5068938;28;20036;-81
2023/12/14 03:36:53;;;;;;;19.27;10.73;;;3.60;99.90;;;4.08;100.00;100149.28;5070233;28;20056;-82
2023/12/14 03:39:18;;;;;;;17.45;9.95;;;3.50;99.90;;;4.15;100.00;100142.09;5069686;28;20039;-81
2023/12/14 03:41:45;;;;;;;22.35;11.00;;;3.50;99.90;;;4.22;100.00;100146.72;5069925;28;20082;-81
2023/12/14 03:44:10;;;;;;;20.67;10.88;;;3.60;99.90;;;4.22;100.00;100146.72;5069299;28;20032;-81
2023/12/14 03:46:36;;;;;;;21.23;11.77;;;3.50;99.90;;;4.02;100.00;100136.53;5069191;28;20499;-81
2023/12/14 03:49:03;;;;;;;20.60;11.52;;;3.50;99.90;;;4.37;100.00;100155.66;5070158;28;20044;-81
2023/12/14 03:51:29;;;;;;;22.10;11.18;;;3.50;99.90;;;4.06;100.00;100159.41;5069833;28;20111;-83
2023/12/14 03:53:55;;;;;;;22.77;11.43;;;3.50;99.90;;;3.96;100.00;100143.50;5052426;28;20036;-82
2023/12/14 03:56:21;;;;;;;21.02;10.80;;;3.50;99.90;;;3.88;100.00;100147.13;5067162;28;20455;-82
2023/12/14 03:58:47;;;;;;;23.77;11.82;;;3.40;99.90;;;4.06;100.00;100155.88;5057958;28;20063;-82
2023/12/14 04:01:20;;;;;;;23.10;11.70;;;3.40;99.90;;;4.10;100.00;100165.25;5040558;28;20041;-81
2023/12/14 04:03:47;;;;;;;24.15;13.48;;;3.40;99.90;;;4.18;100.00;100146.28;5050338;28;20572;-81
2023/12/14 04:06:15;;;;;;;25.00;12.93;;;3.40;99.90;;;3.95;100.00;100173.34;5047884;28;20033;-81
2023/12/14 04:08:41;;;;;;;23.42;11.98;;;3.40;99.90;;;4.06;100.00;100183.72;5069756;28;20029;-81
2023/12/14 04:11:08;;;;;;;27.50;12.82;;;3.40;99.90;;;4.08;100.00;100184.38;5052691;28;20037;-81
2023/12/14 04:13:34;;;;;;;26.05;12.98;;;3.40;99.90;;;4.11;100.00;100191.22;5069532;28;20044;-81
2023/12/14 04:16:00;;;;;;;28.98;13.65;;;3.40;99.90;;;4.05;100.00;100163.16;5069703;28;20496;-81
2023/12/14 04:18:27;;;;;;;25.08;13.45;;;3.40;99.90;;;4.07;100.00;100177.28;5068067;28;20097;-81
2023/12/14 04:20:52;;;;;;;27.42;13.82;;;3.40;99.90;;;3.98;100.00;100184.63;5036064;28;20032;-83
2023/12/14 04:23:18;;;;;;;30.52;13.93;;;3.40;99.90;;;4.27;100.00;100209.97;5073476;28;20029;-81
2023/12/14 04:25:44;;;;;;;27.00;12.50;;;3.40;99.90;;;4.07;100.00;100223.19;5056578;28;20036;-81
2023/12/14 04:28:10;;;;;;;24.33;11.65;;;3.50;99.90;;;3.98;100.00;100218.91;5072859;28;20132;-81
2023/12/14 04:30:36;;;;;;;26.80;12.50;;;3.40;99.90;;;3.86;100.00;100207.72;5061776;28;20037;-81
2023/12/14 04:33:02;;;;;;;26.00;12.18;;;3.40;99.90;;;3.96;100.00;100239.81;5068889;28;20048;-82
2023/12/14 04:35:27;;;;;;;26.00;11.30;;;3.40;99.90;;;3.88;100.00;100244.28;5066745;28;20059;-81
2023/12/14 04:37:53;;;;;;;26.20;12.75;;;3.40;99.90;;;4.06;100.00;100251.22;5068046;28;20085;-81
2023/12/14 04:40:19;;;;;;;24.35;12.18;;;3.30;99.90;;;4.07;100.00;100242.09;5061892;28;20025;-81
2023/12/14 04:42:45;;;;;;;23.55;12.23;;;3.40;99.90;;;4.03;100.00;100252.41;5070964;28;20079;-81
2023/12/14 04:45:12;;;;;;;19.48;10.93;;;3.40;99.90;;;3.85;100.00;100233.03;5072624;28;20060;-81
2023/12/14 04:47:38;;;;;;;22.10;12.50;;;3.40;99.90;;;3.95;100.00;100241.69;5074108;28;20029;-81
2023/12/14 04:50:04;;;;;;;20.25;11.00;;;3.40;99.90;;;4.07;100.00;100257.44;5055865;28;20097;-81
2023/12/14 04:52:30;;;;;;;17.83;9.73;;;3.40;99.90;;;3.92;100.00;100247.47;5074846;28;20043;-81
2023/12/14 04:54:56;;;;;;;17.17;9.15;;;3.40;99.90;;;3.91;100.00;100272.78;5057350;28;20037;-81
2023/12/14 04:57:21;;;;;;;19.02;10.23;;;3.40;99.90;;;4.04;100.00;100269.44;5048468;28;20029;-81
2023/12/14 04:59:47;;;;;;;18.20;9.43;;;3.40;99.90;;;4.05;100.00;100275.66;5054685;28;20437;-81
2023/12/14 05:02:13;;;;;;;17.10;9.63;;;3.40;99.90;;;4.12;100.00;100292.84;5072003;28;20032;-81
2023/12/14 05:04:38;;;;;;;21.17;10.02;;;3.40;99.90;;;4.12;100.00;100276.63;5072660;28;20442;-82
2023/12/14 05:07:04;;;;;;;17.00;9.43;;;3.40;99.90;;;4.00;100.00;100290.56;5051086;28;20341;-81
2023/12/14 05:09:30;;;;;;;21.25;10.88;;;3.50;99.90;;;4.10;100.00;100295.72;5049531;28;20044;-81
2023/12/14 05:11:55;;;;;;;17.95;9.60;;;3.50;99.90;;;4.11;100.00;100305.47;5072811;28;20048;-81
2023/12/14 05:14:21;;;;;;;17.92;10.55;;;3.40;99.90;;;4.27;100.00;100301.78;5070281;28;20044;-82
2023/12/14 05:16:47;;;;;;;15.57;8.43;;;3.40;99.90;;;4.03;100.00;100294.78;5072496;28;20028;-82
2023/12/14 05:19:13;;;;;;;15.63;9.23;;;3.40;99.90;;;4.05;100.00;100311.63;5043142;28;20041;-82
2023/12/14 05:21:39;;;;;;;15.60;9.70;;;3.40;99.90;;;4.08;100.00;100322.06;5046138;28;20033;-81
2023/12/14 05:24:05;;;;;;;14.88;8.88;;;3.40;99.90;;;3.84;100.00;100313.13;5072446;28;20498;-81
2023/12/14 05:26:31;;;;;;;17.00;9.32;;;3.40;99.90;;;3.94;100.00;100304.78;5039193;28;20059;-81
2023/12/14 05:28:57;;;;;;;15.88;10.02;;;3.40;99.90;;;4.09;100.00;100315.63;5054288;28;20447;-81
2023/12/14 05:31:23;;;;;;;18.27;10.38;;;3.40;99.90;;;4.24;100.00;100325.63;5051713;28;20392;-82
2023/12/14 05:33:49;;;;;;;16.67;9.32;;;3.40;99.90;;;4.11;100.00;100337.03;5052600;28;20036;-83
2023/12/14 05:36:15;;;;;;;17.30;9.60;;;3.40;99.90;;;4.06;100.00;100345.69;5071538;28;20078;-82
2023/12/14 05:38:41;;;;;;;15.30;8.65;;;3.40;99.90;;;3.94;100.00;100347.97;5072660;28;20037;-83
2023/12/14 05:41:07;;;;;;;18.95;10.25;;;3.40;99.90;;;4.21;100.00;100337.63;5037464;28;20112;-82
2023/12/14 05:43:33;;;;;;;16.08;10.48;;;3.40;99.90;;;4.20;100.00;100345.91;5038030;28;20037;-82
2023/12/14 05:46:00;;;;;;;15.80;9.23;;;3.40;99.90;;;4.30;100.00;100339.22;5057718;28;20041;-83
2023/12/14 05:48:29;;;;;;;17.80;10.73;;;3.40;99.90;;;4.11;100.00;100348.69;5073278;28;20039;-82
2023/12/14 05:50:56;;;;;;;17.67;9.88;;;3.40;99.90;;;4.12;100.00;100354.94;5058441;28;20041;-83
2023/12/14 05:53:22;;;;;;;17.08;10.15;;;3.40;99.90;;;4.03;100.00;100343.38;5033384;28;20982;-83
2023/12/14 05:55:47;;;;;;;17.42;10.38;;;3.40;99.90;;;3.86;100.00;100335.38;5051154;28;20037;-83
2023/12/14 05:58:13;;;;;;;17.83;9.77;;;3.40;99.90;;;4.07;100.00;100347.38;5070001;28;20035;-81
2023/12/14 06:00:40;;;;;;;17.42;9.45;;;3.40;99.90;;;4.12;100.00;100369.25;5072213;28;20040;-82
2023/12/14 06:03:05;;;;;;;15.45;8.95;;;3.50;99.90;;;3.97;100.00;100377.31;5055590;28;20040;-84
2023/12/14 06:05:31;;;;;;;16.65;9.43;;;3.40;99.90;;;4.12;100.00;100369.25;5053267;28;20094;-83
2023/12/14 06:07:57;;;;;;;17.17;10.43;;;3.50;99.90;;;4.27;100.00;100382.81;5038169;28;20524;-82
2023/12/14 06:10:23;;;;;;;19.05;10.43;;;3.50;99.90;;;4.14;100.00;100359.13;5072106;28;20036;-82
2023/12/14 06:12:48;;;;;;;15.90;9.73;;;3.50;99.90;;;4.16;100.00;100358.94;5060096;28;20037;-81
2023/12/14 06:15:14;;;;;;;16.58;9.32;;;3.50;99.90;;;4.23;100.00;100392.31;5069705;28;20511;-81
2023/12/14 06:17:42;;;;;;;18.30;9.18;;;3.50;99.90;;;4.18;100.00;100392.00;5039393;28;20068;-81
2023/12/14 06:20:08;;;;;;;15.23;9.48;;;3.50;99.90;;;4.36;100.00;100394.38;5067761;28;20072;-81
2023/12/14 06:22:36;;;;;;;16.20;9.90;;;3.50;99.90;;;4.18;100.00;100383.91;5067893;28;20042;-81
2023/12/14 06:25:03;;;;;;;;;;;3.50;99.90;;;4.23;100.00;100391.44;5065947;28;20045;-81
2023/12/14 06:27:29;;;;;;;16.45;8.10;;;3.50;99.90;;;4.04;100.00;100401.72;5049525;28;20444;-82
2023/12/14 06:29:55;;;;;;;15.90;9.77;;;3.50;99.90;;;4.08;100.00;100399.50;5067995;28;20040;-82
2023/12/14 06:32:20;;;;;;;13.38;8.00;;;3.50;99.90;;;3.97;100.00;100393.50;5073924;28;20131;-80
2023/12/14 06:34:47;;;;;;;14.35;8.02;;;3.40;99.90;;;3.99;100.00;100396.03;5076404;28;20029;-81
2023/12/14 06:37:12;;;;;;;15.85;8.40;;;3.40;99.90;;;4.01;100.00;100410.19;5073213;28;20048;-84
2023/12/14 06:39:38;;;;;;;15.25;9.13;;;3.40;99.90;;;4.00;100.00;100424.72;5074161;28;20035;-80
2023/12/14 06:42:04;;;;;;;16.58;8.88;;;3.40;99.90;;;3.84;100.00;100410.28;5053185;28;20400;-81
2023/12/14 06:44:31;;;;;;;13.48;7.53;;;3.40;99.90;;;3.81;100.00;100424.16;5070275;28;20033;-81
2023/12/14 06:46:58;;;;;;;15.98;9.13;;;3.40;99.90;;;4.12;100.00;100428.66;5046379;28;20556;-81
2023/12/14 06:49:25;;;;;;;15.68;8.77;;;3.40;99.90;;;4.19;100.00;100431.50;5070942;28;20114;-82
2023/12/14 06:51:50;;;;;;;16.35;9.45;;;3.40;99.90;;;3.94;100.00;100414.63;5070052;28;20032;-82
2023/12/14 06:54:16;;;;;;;14.25;8.25;;;3.40;99.90;;;4.05;100.00;100433.13;5052147;28;20507;-81
2023/12/14 06:56:42;;;;;;;13.52;8.65;;;3.40;99.90;;;4.08;100.00;100423.78;5050062;28;20052;-81
2023/12/14 06:59:08;;;;;;;14.35;9.32;;;3.40;99.90;;;4.21;100.00;100442.09;5039145;28;20037;-80
2023/12/14 07:01:34;;;;;;;15.00;8.82;;;3.50;99.90;;;4.11;100.00;100432.38;5069042;28;20025;-82
2023/12/14 07:03:59;;;;;;;15.30;9.10;;;3.50;99.90;;;4.23;100.00;100445.47;5044216;28;20048;-80
2023/12/14 07:06:25;;;;;;;17.40;8.80;;;3.50;99.90;;;3.93;100.00;100429.13;5070133;28;20090;-82
2023/12/14 07:08:51;;;;;;;15.48;9.20;;;3.50;99.90;;;4.09;100.00;100457.88;5069995;28;20061;-83
2023/12/14 07:11:17;;;;;;;15.10;9.65;;;3.40;99.90;;;4.29;100.00;100474.47;5068165;28;20044;-81
2023/12/14 07:13:43;;;;;;;15.73;9.40;;;3.50;99.90;;;4.27;100.00;100468.41;5070111;28;20059;-81
2023/12/14 07:16:10;;;;;;;14.68;8.77;;;3.50;99.90;;;4.31;100.00;100478.66;5068894;28;20087;-80
2023/12/14 07:18:44;;;;;;;14.57;9.15;;;3.50;99.90;;;4.00;100.00;100484.09;5019224;28;20037;-81
2023/12/14 07:21:10;;;;;;;13.45;9.05;;;3.40;99.90;;;3.99;100.00;100493.22;5066658;28;20028;-82
2023/12/14 07:23:37;;;;;;;15.93;9.30;;;3.50;99.90;;;4.28;100.00;100494.41;5069272;28;20032;-80
2023/12/14 07:26:03;;;;;;;16.73;10.65;;;3.40;99.90;;;4.18;100.00;100484.66;5069794;28;20047;-80
2023/12/14 07:28:29;;;;;;;14.52;8.48;;;3.50;99.90;;;3.92;100.00;100495.78;5069551;28;20111;-81
2023/12/14 07:30:55;;;;;;;14.90;9.30;;;3.50;99.90;;;3.85;100.00;100509.13;5069374;28;20040;-83
2023/12/14 07:33:21;;;;;;;17.38;9.63;;;3.40;99.90;;;3.94;100.00;100509.09;5038255;28;20045;-80
2023/12/14 07:35:46;;;;;;;14.25;9.43;;;3.40;99.90;;;3.99;100.00;100514.81;5069002;28;20036;-82
2023/12/14 07:38:13;;;;;;;16.05;9.55;;;3.40;99.90;;;4.06;100.00;100533.84;5069224;28;20028;-81
2023/12/14 07:40:40;;;;;;;17.52;9.38;;;3.50;99.90;;;4.18;100.00;100535.13;5071828;28;20033;-80
2023/12/14 07:43:05;;;;;;;15.70;9.55;;;3.50;99.90;;;4.28;100.00;100537.63;5070447;28;20041;-81
2023/12/14 07:45:31;;;;;;;15.52;8.77;;;3.50;99.90;;;4.05;100.00;100530.31;5069437;28;20035;-82
2023/12/14 07:47:57;;;;;;;14.38;8.68;;;3.50;99.90;;;4.12;100.00;100543.94;5050379;28;20051;-82
2023/12/14 07:50:23;;;;;;;14.15;8.80;;;3.50;99.90;;;4.11;100.00;100558.44;5070229;28;20123;-81
2023/12/14 07:52:49;;;;;;;15.27;9.45;;;3.50;99.90;;;4.08;100.00;100556.94;5051191;28;20384;-81
2023/12/14 07:55:15;;;;;;;12.95;8.13;;;3.50;99.90;;;4.03;100.00;100570.13;5032157;28;20041;-81
2023/12/14 07:57:40;;;;;;;15.23;8.63;;;3.60;99.90;;;3.98;100.00;100545.53;5035143;28;20041;-81
2023/12/14 08:00:08;;;;;;;14.95;8.55;;;3.50;99.90;;;4.13;100.00;100586.13;5069599;28;20032;-81
2023/12/14 08:02:34;;;;;;;14.90;8.43;;;3.50;99.90;;;3.99;100.00;100563.41;5069653;28;20049;-81
2023/12/14 08:05:00;;;;;;;14.75;8.05;;;3.50;99.90;;;3.94;100.00;100565.78;5050578;28;20043;-81
2023/12/14 08:07:28;;;;;;;12.55;7.50;;;3.50;99.90;;;4.01;100.00;100569.47;5067914;28;20036;-83
2023/12/14 08:09:58;;;;;;;12.38;6.88;;;3.50;99.90;;;4.13;100.00;100589.66;5037974;28;20041;-81
2023/12/14 08:12:24;;;;;;;11.38;6.53;;;3.50;99.90;;;4.01;100.00;100580.28;5067859;28;20439;-80
2023/12/14 08:14:50;;;;;;;12.90;7.30;;;3.50;99.90;;;3.98;100.00;100596.81;5071000;28;20040;-82
2023/12/14 08:17:17;;;;;;;11.10;6.40;;;3.50;99.90;;;3.98;100.00;100610.31;5069365;28;20025;-82
2023/12/14 08:19:43;;;;;;;9.30;6.00;;;3.50;99.90;;;3.97;100.00;100604.06;5049849;28;20130;-81
2023/12/14 08:22:12;;;;;;;10.52;6.22;;;3.50;99.90;;;4.07;100.00;100614.66;5073187;28;20028;-82
2023/12/14 08:24:39;;;;;;;11.68;6.63;;;3.50;99.90;;;4.03;100.00;100613.34;5056831;28;20368;-81
2023/12/14 08:27:05;;;;;;;10.23;5.88;;;3.50;99.90;;;4.08;100.00;100623.59;5073817;28;20028;-85
2023/12/14 08:29:30;;;;;;;10.52;6.10;;;3.60;99.90;;;4.06;100.00;100615.69;5045168;28;20041;-83
2023/12/14 08:31:57;;;;;;;8.38;5.18;;;3.60;99.90;;;3.85;100.00;100627.91;5071781;28;20054;-82
2023/12/14 08:34:27;;;;;;;9.05;5.63;;;3.60;99.90;;;4.00;100.00;100630.72;5045754;28;20471;-82
2023/12/14 08:36:53;;;;;;;10.07;5.97;;;3.60;99.90;;;4.13;100.00;100643.66;5055914;28;20052;-82
2023/12/14 08:39:19;;;;;;;11.90;5.60;;;3.60;99.90;;;4.15;100.00;100647.03;5076596;28;20529;-81
2023/12/14 08:41:48;;;;;;;11.50;5.13;;;3.60;99.90;;;3.95;100.00;100632.25;5081609;28;20039;-81
2023/12/14 08:44:15;;;;;;;7.43;4.97;;;3.60;99.90;;;3.98;100.00;100648.94;5076160;28;20056;-84
2023/12/14 08:46:46;;;;;;;7.60;4.50;;;3.60;99.90;;;3.99;100.00;100661.44;5067716;28;20052;-82
2023/12/14 08:49:13;;;;;;;7.88;4.03;;;3.60;99.90;;;3.99;100.00;100671.41;5069235;28;20047;-81
2023/12/14 08:51:39;;;;;;;6.43;3.65;;;3.60;99.90;;;3.94;100.00;100662.94;5041851;28;20036;-81
2023/12/14 08:54:06;;;;;;;6.60;3.72;;;3.60;99.90;;;3.79;100.00;100658.28;5052381;28;20120;-81
2023/12/14 08:56:32;;;;;;;7.32;4.65;;;3.60;99.90;;;4.06;100.00;100672.38;5065394;28;20033;-82
2023/12/14 08:58:59;;;;;;;6.72;3.97;;;3.60;99.90;;;4.20;100.00;100687.03;5055824;28;20044;-80
2023/12/14 09:01:25;;;;;;;7.22;4.43;;;3.60;99.90;;;4.15;100.00;100684.00;5072056;28;20448;-80
2023/12/14 09:03:51;;;;;;;7.32;4.43;;;3.70;99.90;;;4.09;100.00;100692.78;5072608;28;20037;-79
2023/12/14 09:06:18;;;;;;;6.50;3.78;;;3.70;99.90;;;4.06;100.00;100699.38;5072614;28;20048;-81
2023/12/14 09:08:46;;;;;;;9.02;3.45;;;3.70;99.90;;;4.05;100.00;100705.81;5071077;28;20077;-81
2023/12/14 09:11:12;;;;;;;8.45;4.57;;;3.70;99.90;;;3.88;100.00;100700.41;5072057;28;20090;-80
2023/12/14 09:13:38;;;;;;;8.77;4.55;;;3.70;99.90;;;4.05;100.00;100695.00;5071884;28;20471;-81
2023/12/14 09:16:04;;;;;;;7.97;4.40;;;3.70;99.90;;;4.25;100.00;100718.94;5054835;28;20033;-79
2023/12/14 09:18:30;;;;;;;6.70;4.20;;;3.70;99.90;;;4.20;100.00;100722.13;5051895;28;20495;-80
2023/12/14 09:20:56;;;;;;;7.55;4.07;;;3.70;99.90;;;4.40;100.00;100735.25;5069263;28;20043;-79
2023/12/14 09:23:22;;;;;;;7.55;4.03;;;3.80;99.90;;;4.24;100.00;100731.56;5055115;28;20108;-80
2023/12/14 09:25:47;;;;;;;6.70;4.30;;;3.80;99.90;;;4.49;100.00;100741.44;5072190;28;20107;-79
2023/12/14 09:28:13;;;;;;;7.07;4.00;;;3.80;99.90;;;4.21;100.00;100740.03;5072241;28;20067;-80
2023/12/14 09:30:39;;;;;;;7.75;4.13;;;3.70;99.90;;;4.09;100.00;100744.94;5071447;28;20138;-80
2023/12/14 09:33:08;;;;;;;6.30;3.63;;;3.70;99.90;;;4.27;100.00;100743.91;5051494;28;20047;-80
2023/12/14 09:35:36;;;;;;;7.40;3.92;;;3.70;99.90;;;4.18;100.00;100741.19;5051586;28;20639;-80
2023/12/14 09:38:03;;;;;;;8.13;3.55;;;3.70;99.90;;;4.21;100.00;100742.72;5067086;28;20060;-82
2023/12/14 09:40:29;;;;;;;9.88;4.50;;;3.70;99.90;;;4.37;100.00;100749.06;5071229;28;20140;-80
2023/12/14 09:42:56;;;;;;;8.45;4.22;;;3.70;99.90;;;4.29;100.00;100760.78;5071044;28;20045;-82
2023/12/14 09:45:28;;;;;;;8.88;4.90;;;3.70;99.90;;;4.41;100.00;100751.28;5071526;28;20039;-81
2023/12/14 09:47:54;;;;;;;10.60;4.80;;;3.70;99.90;;;4.73;100.00;100749.44;5072192;28;20049;-82
2023/12/14 09:50:21;;;;;;;7.95;4.72;;;3.70;99.90;;;4.84;100.00;100767.16;5052430;28;20451;-82
2023/12/14 09:52:48;;;;;;;7.57;4.32;;;3.70;99.90;;;4.64;100.00;100755.06;5070673;28;20055;-83
2023/12/14 09:55:15;;;;;;;9.02;4.32;;;3.80;99.90;;;4.58;100.00;100768.25;5072690;28;20100;-81
2023/12/14 09:57:41;;;;;;;7.40;4.32;;;3.80;99.90;;;4.58;100.00;100762.03;5053254;28;20036;-82
2023/12/14 10:00:10;;;;;;;8.25;4.95;;;3.90;99.90;;;4.63;100.00;100759.66;5080707;28;20040;-81
2023/12/14 10:02:37;;;;;;;10.02;5.10;;;3.90;99.90;;;4.54;100.00;100771.50;5053719;28;20047;-83
2023/12/14 10:05:05;;;;;;;12.45;4.97;;;3.90;99.90;;;4.45;100.00;100762.59;5043214;28;20036;-81
2023/12/14 10:07:31;;;;;;;;;;;3.90;99.90;;;4.30;100.00;100778.66;5076858;28;20036;-81